createdAt,value
2016-06-28T15:52:38.447Z,185
2016-06-28T15:52:54.819Z,150
2016-06-28T15:53:55.212Z,155
2016-06-28T15:54:58.731Z,155
2016-06-28T15:55:56.793Z,155
2016-06-28T15:56:57.719Z,165
2016-06-28T15:58:27.840Z,170
2016-06-28T15:58:56.204Z,170
2016-06-28T15:59:56.465Z,180
2016-06-28T16:00:55.367Z,190
2016-06-28T16:02:09.964Z,185
2016-06-28T16:02:55.246Z,170
2016-06-28T16:03:57.607Z,170
2016-06-28T16:04:56.858Z,185
2016-06-28T16:06:10.206Z,215
2016-06-28T16:07:07.187Z,235
2016-06-28T16:07:56.525Z,230
2016-06-28T16:09:14.765Z,205
2016-06-28T16:09:55.087Z,190
2016-06-28T16:12:01.011Z,170
2016-06-28T16:12:17.061Z,165
2016-06-28T16:13:18.033Z,165
2016-06-28T16:23:27.294Z,190
2016-06-28T16:26:59.015Z,155
2016-06-28T16:27:17.606Z,155
2016-06-28T16:28:14.396Z,165
2016-06-28T16:29:15.677Z,160
2016-06-28T16:30:14.692Z,150
2016-06-28T16:32:40.219Z,170
2016-06-28T16:32:55.647Z,170
2016-06-28T16:33:55.564Z,160
2016-06-28T16:35:20.614Z,145
2016-06-28T16:35:55.927Z,145
2016-06-28T16:36:55.448Z,150
2016-06-28T16:38:00.732Z,145
2016-06-28T16:39:29.047Z,135
2016-06-28T16:39:55.436Z,135
2016-06-28T16:42:10.275Z,140
2016-06-28T16:43:59.457Z,150
2016-06-28T16:44:32.412Z,150
2016-06-28T16:45:17.003Z,160
2016-06-28T16:46:15.593Z,170
2016-06-28T16:47:15.548Z,170
2016-06-28T16:48:15.605Z,180
2016-06-28T16:49:14.768Z,185
2016-06-28T16:50:15.031Z,185
2016-06-28T16:51:19.366Z,150
2016-06-28T16:52:22.410Z,140
2016-06-28T16:53:22.393Z,140
2016-06-28T16:54:22.399Z,145
2016-06-28T16:55:22.462Z,150
2016-06-28T16:56:22.473Z,150
2016-06-28T16:57:22.393Z,135
2016-06-28T16:58:24.460Z,145
2016-06-28T16:59:49.290Z,135
2016-06-28T17:00:23.716Z,130
2016-06-28T17:01:23.259Z,125
2016-06-28T17:02:24.798Z,120
2016-06-28T17:03:30.435Z,120
2016-06-28T17:04:29.855Z,110
2016-06-28T17:05:30.141Z,95
2016-06-28T17:06:25.231Z,85
2016-06-28T17:07:28.921Z,85
2016-06-28T17:08:24.398Z,95
2016-06-28T17:09:26.739Z,100
2016-06-28T17:10:45.203Z,90
2016-06-28T17:11:35.083Z,95
2016-06-28T17:12:24.454Z,100
2016-06-28T17:13:28.556Z,105
2016-06-28T17:14:24.265Z,105
2016-06-28T17:15:34.953Z,110
2016-06-28T17:16:25.298Z,125
2016-06-28T17:17:22.870Z,130
2016-06-28T17:18:24.479Z,135
2016-06-28T17:20:06.110Z,145
2016-06-28T17:24:37.685Z,110
2016-06-28T17:34:47.036Z,105
2016-06-28T17:35:03.217Z,105
2016-06-28T17:36:04.382Z,100
2016-06-28T17:37:08.231Z,95
2016-06-28T17:38:04.892Z,95
2016-06-28T17:39:04.445Z,85
2016-06-28T17:40:04.406Z,85
2016-06-28T17:42:54.329Z,85
2016-06-28T17:43:29.634Z,90
2016-06-28T17:44:45.506Z,95
2016-06-28T17:57:30.564Z,65
2016-06-28T17:57:59.606Z,65
2016-06-28T17:58:46.225Z,65
2016-06-28T17:59:48.097Z,70
2016-06-28T18:00:46.848Z,75
2016-06-28T18:01:47.371Z,65
2016-06-28T18:02:46.918Z,60
2016-06-28T18:03:48.431Z,60
2016-06-28T18:04:47.221Z,65
2016-06-28T18:05:48.216Z,60
2016-06-28T18:06:47.026Z,65
2016-06-28T18:07:46.988Z,65
2016-06-28T18:08:46.690Z,65
2016-06-28T18:09:49.693Z,65
2016-06-28T18:23:02.115Z,55
2016-06-28T18:32:20.562Z,50
2016-06-28T18:32:38.835Z,50
2016-06-28T18:33:40.113Z,50
2016-06-28T18:34:37.373Z,45
2016-06-28T18:35:36.789Z,45
2016-06-28T18:36:37.318Z,40
2016-06-28T18:37:36.096Z,35
2016-06-28T18:38:36.311Z,35
2016-06-28T18:51:37.677Z,30
2016-06-28T19:00:52.988Z,15
2016-06-28T19:01:08.604Z,15
2016-06-28T19:02:08.336Z,15
2016-06-28T19:03:08.716Z,15
2016-06-28T19:04:08.538Z,15
2016-06-28T19:05:08.579Z,15
2016-06-28T19:06:08.883Z,15
2016-06-28T19:07:26.565Z,15
2016-06-28T19:08:13.849Z,15
2016-06-28T19:09:09.124Z,15
2016-06-28T19:10:08.590Z,15
2016-06-28T19:11:10.837Z,15
2016-06-28T19:12:08.359Z,15
2016-06-28T19:13:08.447Z,15
2016-06-28T19:14:08.554Z,15
2016-06-28T19:15:08.554Z,15
2016-06-28T19:16:08.337Z,15
2016-06-28T19:17:09.839Z,15
2016-06-28T19:18:08.608Z,15
2016-06-28T19:19:08.335Z,15
2016-06-28T19:20:08.346Z,15
2016-06-28T19:21:10.419Z,15
2016-06-28T19:22:08.594Z,15
2016-06-28T19:23:08.449Z,15
2016-06-28T19:24:08.446Z,10
2016-06-28T19:37:10.636Z,5
2016-06-28T19:37:25.964Z,5
2016-06-28T19:38:26.162Z,5
2016-06-28T19:39:26.208Z,5
2016-06-28T19:40:26.205Z,5
2016-06-28T19:41:26.193Z,5
2016-06-28T19:42:26.467Z,5
2016-06-28T19:43:26.971Z,5
2016-06-28T19:44:27.182Z,5
2016-06-28T19:45:26.526Z,5
2016-06-28T19:46:28.308Z,5
2016-06-28T19:47:28.115Z,5
2016-06-28T19:48:37.700Z,0
2016-06-28T19:49:28.048Z,0
2016-06-28T19:50:27.838Z,0
2016-06-28T19:51:26.356Z,0
2016-06-28T19:52:27.361Z,0
2016-06-28T19:53:26.613Z,0
2016-06-28T19:54:31.874Z,0
2016-06-28T19:55:27.118Z,0
2016-06-28T19:56:26.942Z,0
2016-06-28T19:57:26.498Z,0
2016-06-28T19:58:26.470Z,0
2016-06-28T19:59:30.166Z,0
2016-06-28T20:00:26.643Z,0
2016-06-28T20:01:26.543Z,0
2016-06-28T20:02:27.758Z,0
2016-06-28T20:03:26.540Z,0
2016-06-28T20:04:26.537Z,0
2016-06-28T20:05:26.718Z,0
2016-06-28T20:06:26.836Z,0
2016-06-28T20:07:26.525Z,0
2016-06-28T20:08:26.738Z,0
2016-06-28T20:09:26.354Z,0
2016-06-28T20:10:26.339Z,0
2016-06-28T20:11:26.250Z,0
2016-06-28T20:12:26.404Z,0
2016-06-28T20:13:26.318Z,0
2016-06-28T20:14:26.295Z,0
2016-06-28T20:15:26.381Z,0
2016-06-28T20:16:27.682Z,0
2016-06-28T20:17:31.906Z,0
2016-06-28T20:18:27.004Z,0
2016-06-28T20:19:26.411Z,0
2016-06-28T20:20:26.849Z,0
2016-06-28T20:21:26.810Z,0
2016-06-28T20:22:26.460Z,0
2016-06-28T20:23:26.422Z,0
2016-06-28T20:24:30.316Z,0
2016-06-28T20:25:26.326Z,0
2016-06-28T20:26:27.465Z,0
2016-06-28T20:27:26.228Z,0
2016-06-28T20:28:26.311Z,0
2016-06-28T20:29:26.487Z,0
2016-06-28T20:30:26.510Z,0
2016-06-28T20:31:26.718Z,0
2016-06-28T20:32:27.263Z,0
2016-06-28T20:33:26.423Z,0
2016-06-28T20:34:26.248Z,0
2016-06-28T20:35:27.185Z,0
2016-06-28T20:36:26.629Z,0
2016-06-28T20:37:26.343Z,0
2016-06-28T20:38:26.306Z,0
2016-06-28T20:39:27.466Z,0
2016-06-28T20:40:27.020Z,0
2016-06-28T20:41:27.630Z,0
2016-06-28T20:42:29.445Z,0
2016-06-28T20:43:27.321Z,0
2016-06-28T20:44:27.211Z,0
2016-06-28T20:45:26.451Z,0
2016-06-28T20:46:26.409Z,0
2016-06-28T20:47:26.428Z,0
2016-06-28T20:48:28.370Z,0
2016-06-28T20:49:28.627Z,0
2016-06-28T20:50:26.411Z,0
2016-06-28T20:51:26.411Z,0
2016-06-28T20:52:26.374Z,0
2016-06-28T20:53:26.452Z,0
2016-06-28T20:54:26.307Z,0
2016-06-28T20:55:26.293Z,0
2016-06-28T20:56:26.366Z,0
2016-06-28T20:57:27.053Z,0
2016-06-28T20:58:26.312Z,0
2016-06-28T20:59:26.355Z,0
2016-06-28T21:00:27.233Z,0
2016-06-28T21:01:26.391Z,0
2016-06-28T21:02:26.432Z,0
2016-06-28T21:03:26.462Z,0
2016-06-28T21:04:26.535Z,0
2016-06-28T21:05:26.396Z,0
2016-06-28T21:06:26.458Z,0
2016-06-28T21:07:26.358Z,0
2016-06-28T21:08:26.481Z,0
2016-06-28T21:09:26.576Z,0
2016-06-28T21:10:26.379Z,0
2016-06-28T21:11:26.318Z,0
2016-06-28T21:12:26.516Z,0
2016-06-28T21:13:26.317Z,0
2016-06-28T21:14:26.561Z,0
2016-06-28T21:15:26.427Z,0
2016-06-28T21:16:26.418Z,0
2016-06-28T21:17:26.476Z,0
2016-06-28T21:18:26.476Z,0
2016-06-28T21:19:26.420Z,0
2016-06-28T21:20:27.810Z,0
2016-06-28T21:30:27.326Z,0
2016-06-28T21:30:43.249Z,0
2016-06-28T21:31:44.442Z,0
2016-06-28T21:32:43.140Z,0
2016-06-28T21:33:44.637Z,0
2016-06-28T21:34:43.240Z,0
2016-06-28T21:35:43.285Z,0
2016-06-28T21:36:44.466Z,0
2016-06-28T21:37:43.117Z,0
2016-06-28T21:38:43.185Z,0
2016-06-28T21:39:43.447Z,0
2016-06-28T21:40:43.424Z,0
2016-06-28T21:41:43.062Z,0
2016-06-28T21:42:43.183Z,0
2016-06-28T21:43:43.245Z,0
2016-06-28T21:44:43.181Z,0
2016-06-28T21:45:43.306Z,0
2016-06-28T21:46:43.125Z,0
2016-06-28T21:47:44.727Z,0
2016-06-28T21:48:43.564Z,0
2016-06-28T21:49:43.109Z,0
2016-06-28T21:50:43.131Z,0
2016-06-28T21:51:43.187Z,0
2016-06-28T21:52:43.250Z,0
2016-06-28T21:53:43.115Z,0
2016-06-28T21:54:43.192Z,0
2016-06-28T21:55:46.289Z,0
2016-06-28T21:56:43.535Z,0
2016-06-28T21:57:43.659Z,0
2016-06-28T21:58:46.130Z,0
2016-06-28T21:59:43.310Z,0
2016-06-28T22:00:43.971Z,0
2016-06-28T22:01:43.391Z,0
2016-06-28T22:02:43.234Z,0
2016-06-28T22:03:43.170Z,0
2016-06-28T22:04:43.169Z,0
2016-06-28T22:05:43.085Z,0
2016-06-28T22:06:43.135Z,0
2016-06-28T22:07:43.575Z,0
2016-06-28T22:08:43.924Z,0
2016-06-28T22:09:43.450Z,0
2016-06-28T22:10:43.070Z,0
2016-06-28T22:11:44.488Z,0
2016-06-28T22:12:43.504Z,0
2016-06-28T22:13:44.155Z,0
2016-06-28T22:14:43.198Z,0
2016-06-28T22:15:43.177Z,0
2016-06-28T22:16:43.117Z,0
2016-06-28T22:17:44.343Z,0
2016-06-28T22:18:43.121Z,0
2016-06-28T22:19:43.339Z,0
2016-06-28T22:20:43.316Z,0
2016-06-28T22:21:43.195Z,0
2016-06-28T22:22:43.163Z,0
2016-06-28T22:23:43.197Z,0
2016-06-28T22:24:44.379Z,0
2016-06-28T22:25:43.277Z,0
2016-06-28T22:26:43.158Z,0
2016-06-28T22:27:43.220Z,0
2016-06-28T22:28:43.050Z,0
2016-06-28T22:29:43.140Z,0
2016-06-28T22:30:43.236Z,0
2016-06-28T22:31:51.782Z,0
2016-06-28T22:32:43.194Z,0
2016-06-28T22:33:43.328Z,0
2016-06-28T22:34:43.158Z,0
2016-06-28T22:35:43.155Z,0
2016-06-28T22:36:43.259Z,0
2016-06-28T22:37:49.767Z,0
2016-06-28T22:38:44.202Z,0
2016-06-28T22:39:43.219Z,0
2016-06-28T22:40:43.362Z,0
2016-06-28T22:41:43.562Z,0
2016-06-28T22:42:43.064Z,0
2016-06-28T22:43:43.183Z,0
2016-06-28T22:44:45.771Z,0
2016-06-28T22:45:43.299Z,0
2016-06-28T22:46:43.323Z,0
2016-06-28T22:47:43.163Z,0
2016-06-28T22:48:43.098Z,0
2016-06-28T22:49:43.325Z,0
2016-06-28T22:50:43.329Z,0
2016-06-28T22:51:43.210Z,0
2016-06-28T22:52:43.250Z,0
2016-06-28T22:53:43.165Z,0
2016-06-28T22:54:43.167Z,0
2016-06-28T22:55:43.190Z,0
2016-06-28T22:56:56.246Z,0
2016-06-28T22:57:43.288Z,0
2016-06-28T22:58:43.170Z,0
2016-06-28T22:59:43.187Z,0
2016-06-28T23:00:44.731Z,0
2016-06-28T23:01:43.113Z,0
2016-06-28T23:02:43.204Z,0
2016-06-28T23:03:43.268Z,0
2016-06-28T23:05:05.628Z,0
2016-06-28T23:05:56.000Z,0
2016-06-28T23:06:43.215Z,0
2016-06-28T23:07:43.167Z,0
2016-06-28T23:08:43.070Z,0
2016-06-28T23:09:43.130Z,0
2016-06-28T23:10:44.110Z,0
2016-06-28T23:11:54.305Z,0
2016-06-28T23:12:54.699Z,0
2016-06-28T23:13:44.702Z,0
2016-06-28T23:14:43.273Z,0
2016-06-28T23:15:43.175Z,0
2016-06-28T23:16:56.010Z,0
2016-06-28T23:29:44.283Z,0
2016-06-28T23:30:00.180Z,0
2016-06-28T23:31:00.058Z,0
2016-06-28T23:32:00.081Z,0
2016-06-28T23:33:00.095Z,0
2016-06-28T23:34:00.087Z,0
2016-06-28T23:35:00.217Z,0
2016-06-28T23:35:59.999Z,0
2016-06-28T23:37:00.122Z,0
2016-06-28T23:38:00.081Z,0
2016-06-28T23:39:00.139Z,0
2016-06-28T23:40:00.080Z,0
2016-06-28T23:41:00.122Z,0
2016-06-28T23:41:59.583Z,0
2016-06-28T23:42:59.613Z,0
2016-06-28T23:43:59.451Z,0
2016-06-28T23:44:59.396Z,0
2016-06-28T23:45:59.451Z,0
2016-06-28T23:46:59.439Z,0
2016-06-28T23:47:59.447Z,0
2016-06-28T23:49:00.123Z,0
2016-06-28T23:50:02.447Z,0
2016-06-28T23:50:59.458Z,0
2016-06-28T23:51:59.499Z,0
2016-06-28T23:53:00.063Z,0
2016-06-28T23:53:59.657Z,0
2016-06-28T23:54:59.968Z,0
2016-06-28T23:56:00.126Z,0
2016-06-28T23:57:00.147Z,0
2016-06-28T23:57:59.578Z,0
2016-06-28T23:58:59.970Z,0
